Time;durP1;ratioP1;P1;durP2;ratioP2;P2;SDS_P1;SDS_P2;PMS_P1;PMS_P2;Temp;Humidity;BMP_temperature;BMP_pressure;BME280_temperature;BME280_humidity;BME280_pressure;Samples;Min_cycle;Max_cycle;Signal;HPM_P1;HPM_P2
2022/11/28 00:00:11;;;;;;;0.20;0.20;;;;;;;6.03;79.47;100304.81;5091568;28;20254;-75
2022/11/28 00:02:36;;;;;;;0.17;0.10;;;;;;;5.96;79.57;100290.78;5091150;28;20596;-76
2022/11/28 00:05:02;;;;;;;0.00;0.00;;;;;;;6.02;79.57;100302.38;5091551;28;20170;-75
2022/11/28 00:07:27;;;;;;;0.00;0.00;;;;;;;5.99;79.78;100308.38;5091652;28;20554;-76
2022/11/28 00:09:53;;;;;;;0.00;0.00;;;;;;;6.00;79.51;100301.88;5091426;28;20690;-76
2022/11/28 00:12:19;;;;;;;0.00;0.00;;;;;;;5.90;79.93;100302.75;5091174;28;20194;-76
2022/11/28 00:14:45;;;;;;;0.43;0.27;;;;;;;5.93;79.58;100305.72;5072966;28;20242;-74
2022/11/28 00:17:10;;;;;;;0.50;0.50;;;;;;;5.96;79.03;100297.03;5089934;28;20178;-76
2022/11/28 00:19:35;;;;;;;0.20;0.20;;;;;;;6.05;78.64;100296.38;5073079;28;20178;-75
2022/11/28 00:22:01;;;;;;;0.00;0.00;;;;;;;6.10;78.16;100305.31;5091224;28;20184;-75
2022/11/28 00:24:26;;;;;;;0.70;0.70;;;;;;;6.10;77.86;100304.50;5090916;28;20245;-76
2022/11/28 00:26:52;;;;;;;1.23;1.17;;;;;;;6.18;76.73;100312.00;5090929;28;20181;-75
2022/11/28 00:29:17;;;;;;;0.27;0.27;;;;;;;6.18;76.48;100307.38;5090447;28;20546;-75
2022/11/28 00:31:42;;;;;;;0.77;0.77;;;;;;;6.24;75.72;100319.81;5091195;28;20645;-76
2022/11/28 00:34:10;;;;;;;1.03;1.03;;;;;;;6.28;75.25;100314.63;5090704;28;20239;-75
2022/11/28 00:36:35;;;;;;;0.13;0.13;;;;;;;6.29;74.84;100318.16;5072788;28;20177;-76
2022/11/28 00:39:01;;;;;;;2.33;2.17;;;;;;;6.26;75.08;100314.13;5090829;28;20178;-75
2022/11/28 00:41:29;;;;;;;7.60;1.47;;;;;;;6.26;74.75;100319.53;5090906;28;20180;-75
2022/11/28 00:43:55;;;;;;;4.70;1.37;;;;;;;6.26;74.59;100322.25;5090477;28;20274;-75
2022/11/28 00:46:22;;;;;;;0.00;0.00;;;;;;;6.27;74.80;100313.00;5089569;28;20629;-74
2022/11/28 00:48:47;;;;;;;0.20;0.20;;;;;;;6.28;74.88;100314.63;5090799;28;20169;-75
2022/11/28 00:51:16;;;;;;;0.00;0.00;;;;;;;6.24;75.59;100310.88;5090269;28;20650;-75
2022/11/28 00:53:43;;;;;;;0.10;0.10;;;;;;;6.26;75.65;100308.69;5090503;28;20206;-74
2022/11/28 00:56:11;;;;;;;0.47;0.47;;;;;;;6.31;75.40;100310.53;5090577;28;20180;-74
2022/11/28 00:58:38;;;;;;;0.20;0.20;;;;;;;6.30;75.84;100300.78;5090750;28;20286;-76
2022/11/28 01:01:15;;;;;;;0.10;0.10;;;;;;;6.21;76.06;100273.44;5090579;28;20172;-75
2022/11/28 01:03:41;;;;;;;1.07;1.07;;;;;;;6.25;75.50;100272.63;5090100;28;20553;-75
2022/11/28 01:06:08;;;;;;;0.00;0.00;;;;;;;6.18;76.19;100277.56;5090326;28;20408;-74
2022/11/28 01:08:33;;;;;;;0.20;0.20;;;;;;;6.11;76.72;100257.31;5090393;28;20177;-76
2022/11/28 01:10:59;;;;;;;0.00;0.00;;;;;;;6.13;76.45;100255.09;5090360;28;20533;-76
2022/11/28 01:13:24;;;;;;;0.87;0.87;;;;;;;6.14;76.14;100267.56;5090008;28;20169;-75
2022/11/28 01:15:50;;;;;;;0.90;0.87;;;;;;;6.14;76.05;100264.84;5090227;28;20595;-76
2022/11/28 01:18:15;;;;;;;0.47;0.23;;;;;;;6.13;75.95;100247.78;5090419;28;20177;-75
2022/11/28 01:20:41;;;;;;;0.00;0.00;;;;;;;6.12;76.04;100242.63;5090335;28;20239;-76
2022/11/28 01:23:06;;;;;;;0.77;0.57;;;;;;;6.14;75.92;100246.69;5090001;28;20229;-74
2022/11/28 01:25:31;;;;;;;0.40;0.40;;;;;;;6.13;75.11;100260.53;5090467;28;20170;-76
2022/11/28 01:27:57;;;;;;;0.50;0.50;;;;;;;6.15;74.74;100255.63;5090290;28;20169;-75
2022/11/28 01:30:22;;;;;;;0.67;0.50;;;;;;;6.15;74.45;100247.47;5072229;28;20178;-74
2022/11/28 01:32:48;;;;;;;0.00;0.00;;;;;;;6.15;74.38;100244.78;5090077;28;20648;-75
2022/11/28 01:35:13;;;;;;;0.00;0.00;;;;;;;6.18;74.66;100236.88;5090083;28;20190;-76
2022/11/28 01:37:39;;;;;;;0.67;0.67;;;;;;;6.19;74.55;100241.19;5089033;28;20224;-75
2022/11/28 01:40:05;;;;;;;0.00;0.00;;;;;;;6.16;74.67;100240.97;5090306;28;20170;-75
2022/11/28 01:42:30;;;;;;;0.07;0.07;;;;;;;6.17;74.48;100240.69;5071963;28;20931;-76
2022/11/28 01:45:17;;;;;;;0.00;0.00;;;;;;;6.18;74.57;100239.56;5088638;28;20174;-74
2022/11/28 01:47:44;;;;;;;1.70;0.70;;;;;;;6.09;75.09;100210.69;5090265;28;20251;-75
2022/11/28 01:50:11;;;;;;;0.03;0.03;;;;;;;6.01;75.47;100212.09;5090413;28;20291;-76
2022/11/28 01:52:42;;;;;;;0.80;0.80;;;;;;;6.02;75.35;100221.84;5090009;28;20247;-76
2022/11/28 01:55:11;;;;;;;0.00;0.00;;;;;;;5.99;75.92;100206.16;5090644;28;20261;-76
2022/11/28 01:57:37;;;;;;;0.30;0.30;;;;;;;5.95;76.73;100216.78;5089915;28;20185;-75
2022/11/28 02:00:07;;;;;;;0.43;0.20;;;;;;;5.93;77.23;100215.41;5089947;28;20592;-76
2022/11/28 02:02:44;;;;;;;0.00;0.00;;;;;;;5.91;77.67;100215.69;5089884;28;20921;-75
2022/11/28 02:05:11;;;;;;;0.03;0.03;;;;;;;5.90;76.94;100197.81;5094011;28;20529;-76
2022/11/28 02:07:37;;;;;;;0.07;0.07;;;;;;;5.83;78.05;100183.78;5093800;28;20239;-76
2022/11/28 02:10:06;;;;;;;0.47;0.23;;;;;;;5.80;77.51;100172.72;5093884;28;20174;-76
2022/11/28 02:12:57;;;;;;;1.70;0.67;;;;;;;5.77;77.47;100165.13;5093139;28;20170;-75
2022/11/28 02:16:00;;;;;;;0.20;0.20;;;;;;;5.80;77.51;100161.88;5093772;28;20186;-75
2022/11/28 02:18:31;;;;;;;0.20;0.20;;;;;;;5.81;76.89;100150.72;5075534;28;20268;-75
2022/11/28 02:21:18;;;;;;;0.10;0.10;;;;;;;5.78;76.80;100116.03;5093638;28;20551;-76
2022/11/28 02:23:43;;;;;;;0.03;0.00;;;;;;;5.85;76.27;100108.38;5092915;28;20504;-75
2022/11/28 02:26:24;;;;;;;2.13;0.47;;;;;;;5.83;75.82;100097.03;5075534;28;20174;-76
2022/11/28 02:29:20;;;;;;;0.00;0.00;;;;;;;5.86;76.04;100096.44;5093664;28;20178;-75
2022/11/28 02:31:49;;;;;;;0.00;0.00;;;;;;;5.82;75.60;100108.97;5093382;28;20174;-74
2022/11/28 02:34:43;;;;;;;0.00;0.00;;;;;;;5.93;75.16;100117.81;5092851;28;20279;-75
2022/11/28 02:37:19;;;;;;;0.00;0.00;;;;;;;6.03;74.47;100120.41;5075401;28;20572;-74
2022/11/28 02:39:54;;;;;;;0.70;0.70;;;;;;;6.07;74.22;100147.75;5093548;28;20177;-74
2022/11/28 02:42:27;;;;;;;0.50;0.50;;;;;;;6.05;74.06;100168.94;5096956;28;20670;-74
2022/11/28 02:45:19;;;;;;;0.47;0.47;;;;;;;5.97;74.00;100138.66;5098631;28;20211;-73
2022/11/28 02:47:49;;;;;;;0.13;0.13;;;;;;;5.96;74.50;100139.75;5094556;28;20267;-74
2022/11/28 02:50:29;;;;;;;0.47;0.47;;;;;;;5.95;75.07;100135.44;5099203;28;20178;-74
2022/11/28 02:53:09;;;;;;;1.20;0.33;;;;;;;6.00;74.99;100171.72;5093099;28;20223;-74
2022/11/28 02:55:42;;;;;;;1.67;1.63;;;;;;;5.93;74.79;100161.19;5093293;28;20539;-74
2022/11/28 02:58:09;;;;;;;0.27;0.27;;;;;;;5.95;74.79;100157.13;5093259;28;20193;-74
2022/11/28 03:00:37;;;;;;;0.27;0.27;;;;;;;5.90;75.00;100151.72;5093101;28;20350;-74
2022/11/28 03:03:20;;;;;;;0.00;0.00;;;;;;;5.96;74.75;100145.19;5092590;28;20298;-74
2022/11/28 03:05:54;;;;;;;0.30;0.20;;;;;;;5.90;74.80;100127.34;5093173;28;20182;-73
2022/11/28 03:08:44;;;;;;;0.30;0.30;;;;;;;6.06;74.10;100143.44;5093033;28;20196;-74
2022/11/28 03:11:22;;;;;;;0.00;0.00;;;;;;;6.01;73.99;100141.59;5092940;28;20174;-74
2022/11/28 03:14:00;;;;;;;0.00;0.00;;;;;;;6.04;73.76;100138.28;5092015;28;20173;-74
2022/11/28 03:16:37;;;;;;;1.87;1.53;;;;;;;6.02;74.06;100137.78;5092910;28;20181;-73
2022/11/28 03:19:26;;;;;;;0.00;0.00;;;;;;;5.99;73.93;100132.94;5092604;28;20177;-74
2022/11/28 03:22:10;;;;;;;1.27;1.17;;;;;;;6.00;73.70;100122.91;5092107;28;20209;-74
2022/11/28 03:24:53;;;;;;;0.80;0.77;;;;;;;6.00;73.83;100122.91;5092440;28;20181;-76
2022/11/28 03:27:27;;;;;;;0.97;0.97;;;;;;;5.98;73.44;100115.06;5094695;28;20170;-77
2022/11/28 03:30:02;;;;;;;0.30;0.30;;;;;;;6.00;73.36;100115.56;5093795;28;20177;-77
2022/11/28 03:32:32;;;;;;;0.10;0.10;;;;;;;5.93;73.53;100115.09;5092392;28;20177;-76
2022/11/28 03:35:15;;;;;;;2.83;1.97;;;;;;;5.96;73.38;100112.63;5073905;28;20193;-76
2022/11/28 03:38:08;;;;;;;0.57;0.57;;;;;;;5.86;73.83;100104.59;5092229;28;20264;-77
2022/11/28 03:40:43;;;;;;;0.00;0.00;;;;;;;5.85;73.81;100111.09;5092026;28;20174;-77
2022/11/28 03:43:13;;;;;;;5.20;0.70;;;;;;;5.83;74.11;100112.50;5091725;28;20208;-77
2022/11/28 03:45:43;;;;;;;0.57;0.57;;;;;;;5.81;74.10;100109.25;5091533;28;20170;-76
2022/11/28 03:48:22;;;;;;;0.90;0.87;;;;;;;5.81;74.29;100112.78;5073840;28;20260;-75
2022/11/28 03:50:56;;;;;;;0.37;0.37;;;;;;;5.83;73.99;100123.34;5091481;28;20192;-75
2022/11/28 03:53:30;;;;;;;0.00;0.00;;;;;;;5.79;74.23;100104.13;5091613;28;20177;-77
2022/11/28 03:55:58;;;;;;;0.17;0.17;;;;;;;5.80;74.58;100111.16;5091743;28;20182;-76
2022/11/28 03:58:35;;;;;;;0.33;0.33;;;;;;;5.79;74.46;100103.31;5092014;28;20177;-75
2022/11/28 04:01:25;;;;;;;3.60;0.53;;;;;;;5.81;74.51;100091.09;5091927;28;20166;-74
2022/11/28 04:03:57;;;;;;;0.00;0.00;;;;;;;5.75;74.65;100088.72;5073001;28;20211;-75
2022/11/28 04:06:49;;;;;;;2.03;1.93;;;;;;;5.83;74.63;100096.22;5091671;28;20529;-76
2022/11/28 04:09:20;;;;;;;0.47;0.47;;;;;;;5.70;75.06;100088.78;5092074;28;20314;-74
2022/11/28 04:12:03;;;;;;;0.20;0.07;;;;;;;5.80;74.17;100091.38;5091474;28;20177;-74
2022/11/28 04:14:45;;;;;;;0.00;0.00;;;;;;;5.85;74.30;100097.53;5091667;28;20177;-74
2022/11/28 04:17:25;;;;;;;0.00;0.00;;;;;;;5.90;74.25;100088.56;5091576;28;20618;-75
2022/11/28 04:19:58;;;;;;;0.00;0.00;;;;;;;5.76;74.43;100085.72;5091333;28;20165;-75
2022/11/28 04:22:29;;;;;;;0.50;0.50;;;;;;;5.82;74.30;100094.63;5090793;28;20173;-74
2022/11/28 04:25:00;;;;;;;1.63;1.50;;;;;;;5.63;74.98;100080.97;5091500;28;20180;-74
2022/11/28 04:27:31;;;;;;;0.43;0.43;;;;;;;5.78;74.64;100090.84;5091113;28;20195;-74
2022/11/28 04:30:00;;;;;;;0.73;0.73;;;;;;;5.82;74.29;100100.84;5091501;28;20166;-73
2022/11/28 04:32:30;;;;;;;0.23;0.23;;;;;;;5.80;74.02;100092.19;5073117;28;20216;-73
2022/11/28 04:35:01;;;;;;;0.20;0.20;;;;;;;5.77;74.17;100086.53;5090748;28;20609;-74
2022/11/28 04:37:33;;;;;;;0.50;0.50;;;;;;;5.72;74.38;100095.53;5092634;28;20529;-74
2022/11/28 04:39:59;;;;;;;0.03;0.03;;;;;;;5.75;74.74;100081.38;5091304;28;20181;-74
2022/11/28 04:42:48;;;;;;;0.27;0.27;;;;;;;5.64;74.86;100077.16;5090851;28;20628;-75
2022/11/28 04:45:20;;;;;;;2.40;0.90;;;;;;;5.63;75.43;100073.66;5091324;28;20158;-75
2022/11/28 04:47:46;;;;;;;4.43;0.97;;;;;;;5.64;74.95;100074.47;5090936;28;20196;-74
2022/11/28 04:50:12;;;;;;;0.00;0.00;;;;;;;5.59;75.14;100069.91;5091080;28;20177;-75
2022/11/28 04:53:03;;;;;;;0.00;0.00;;;;;;;5.64;75.14;100063.63;5090592;28;20656;-75
2022/11/28 04:55:37;;;;;;;0.47;0.47;;;;;;;5.56;75.43;100064.25;5076624;28;20613;-75
2022/11/28 04:58:12;;;;;;;1.70;0.87;;;;;;;5.60;75.41;100070.72;5089662;28;20174;-75
2022/11/28 05:00:38;;;;;;;0.57;0.57;;;;;;;5.60;75.22;100066.09;5091093;28;20220;-74
2022/11/28 05:03:05;;;;;;;0.00;0.00;;;;;;;5.53;75.50;100062.94;5090290;28;20589;-74
2022/11/28 05:05:30;;;;;;;0.17;0.17;;;;;;;5.53;75.51;100068.38;5090505;28;20185;-75
2022/11/28 05:07:58;;;;;;;0.00;0.00;;;;;;;5.52;75.67;100052.41;5090831;28;20178;-74
2022/11/28 05:10:23;;;;;;;3.00;0.40;;;;;;;5.52;75.33;100065.94;5090741;28;20437;-74
2022/11/28 05:12:49;;;;;;;1.00;0.93;;;;;;;5.55;75.27;100063.47;5072230;28;20540;-74
2022/11/28 05:15:17;;;;;;;0.30;0.30;;;;;;;5.51;75.54;100059.72;5090625;28;20234;-75
2022/11/28 05:17:44;;;;;;;0.00;0.00;;;;;;;5.53;75.36;100059.44;5090608;28;20180;-74
2022/11/28 05:20:10;;;;;;;0.30;0.30;;;;;;;5.55;76.09;100059.94;5090445;28;20644;-74
2022/11/28 05:22:35;;;;;;;0.50;0.50;;;;;;;5.54;75.95;100052.91;5090156;28;20236;-74
2022/11/28 05:25:00;;;;;;;0.10;0.10;;;;;;;5.57;75.44;100055.03;5090573;28;20201;-74
2022/11/28 05:27:26;;;;;;;0.33;0.33;;;;;;;5.53;75.32;100057.53;5090890;28;20173;-75
2022/11/28 05:29:52;;;;;;;1.97;1.37;;;;;;;5.58;75.13;100048.53;5090528;28;20193;-74
2022/11/28 05:32:18;;;;;;;0.50;0.50;;;;;;;5.57;75.00;100049.63;5090176;28;20577;-75
2022/11/28 05:34:43;;;;;;;0.00;0.00;;;;;;;5.63;74.97;100053.88;5104078;22;20222;-80
2022/11/28 05:37:08;;;;;;;0.00;0.00;;;;;;;5.59;74.89;100055.56;5062935;28;20170;-81
2022/11/28 05:39:34;;;;;;;0.00;0.00;;;;;;;5.53;75.07;100049.41;5074274;28;20170;-79
2022/11/28 05:41:59;;;;;;;0.27;0.27;;;;;;;5.64;74.83;100067.16;5072931;28;20652;-80
2022/11/28 05:44:24;;;;;;;0.97;0.97;;;;;;;5.63;74.78;100068.22;5073853;28;20235;-80
2022/11/28 05:46:50;;;;;;;0.43;0.43;;;;;;;5.67;74.50;100061.16;5074377;28;20507;-77
2022/11/28 05:49:15;;;;;;;0.00;0.00;;;;;;;5.52;74.85;100052.41;5074024;28;20181;-78
2022/11/28 05:51:41;;;;;;;0.10;0.10;;;;;;;5.52;74.90;100042.38;5072893;28;20177;-81
2022/11/28 05:54:07;;;;;;;0.37;0.37;;;;;;;5.45;75.44;100030.25;5074131;28;20192;-78
2022/11/28 05:56:32;;;;;;;0.00;0.00;;;;;;;5.41;75.53;100048.16;5074252;28;20576;-79
2022/11/28 05:58:57;;;;;;;0.00;0.00;;;;;;;5.47;75.11;100036.97;5074043;28;20194;-82
2022/11/28 06:01:28;;;;;;;0.50;0.50;;;;;;;5.49;75.23;100042.09;5074303;28;20172;-80
2022/11/28 06:03:58;;;;;;;0.00;0.00;;;;;;;5.46;75.20;100027.25;5073782;28;20206;-79
2022/11/28 06:06:25;;;;;;;0.00;0.00;;;;;;;5.40;75.55;100038.44;5074064;28;20534;-80
2022/11/28 06:08:51;;;;;;;0.37;0.37;;;;;;;5.43;75.57;100035.94;5073969;28;20179;-77
2022/11/28 06:11:18;;;;;;;0.00;0.00;;;;;;;5.44;75.09;100024.00;5073839;28;20233;-80
2022/11/28 06:13:45;;;;;;;0.00;0.00;;;;;;;5.42;75.12;100026.22;5073711;28;20175;-79
2022/11/28 06:16:14;;;;;;;0.00;0.00;;;;;;;5.36;75.42;100033.59;5073918;28;20182;-80
2022/11/28 06:18:40;;;;;;;1.10;1.10;;;;;;;5.36;74.99;100044.44;5073738;28;20197;-80
2022/11/28 06:21:08;;;;;;;0.00;0.00;;;;;;;5.41;74.68;100035.44;5073790;28;20253;-79
2022/11/28 06:23:33;;;;;;;0.30;0.30;;;;;;;5.40;75.00;100031.09;5073135;28;20217;-78
2022/11/28 06:26:13;;;;;;;0.10;0.10;;;;;;;5.42;74.97;100036.25;5073581;28;20179;-82
2022/11/28 06:28:39;;;;;;;0.47;0.47;;;;;;;5.41;74.93;100035.44;5073665;28;20182;-77
2022/11/28 06:31:09;;;;;;;0.00;0.00;;;;;;;5.41;75.22;100030.00;5073580;28;20172;-80
2022/11/28 06:33:35;;;;;;;0.87;0.77;;;;;;;5.47;74.86;100041.59;5073259;28;20174;-81
2022/11/28 06:36:02;;;;;;;1.37;1.20;;;;;;;5.50;74.68;100038.34;5073432;28;20189;-82
2022/11/28 06:38:28;;;;;;;0.10;0.10;;;;;;;5.42;74.79;100028.91;5073443;28;20178;-80
2022/11/28 06:41:02;;;;;;;0.00;0.00;;;;;;;5.44;74.83;100040.28;5073357;28;20660;-81
2022/11/28 06:43:29;;;;;;;0.00;0.00;;;;;;;5.33;74.90;100033.34;5073315;28;20228;-81
2022/11/28 06:45:55;;;;;;;1.50;1.40;;;;;;;5.34;75.08;100030.34;5073292;28;20228;-78
2022/11/28 06:48:21;;;;;;;0.00;0.00;;;;;;;5.35;75.10;100045.53;5072853;28;20178;-80
2022/11/28 06:50:47;;;;;;;0.00;0.00;;;;;;;5.45;75.02;100050.00;5072876;28;20174;-79
2022/11/28 06:53:13;;;;;;;0.30;0.30;;;;;;;5.49;74.60;100059.16;5072991;28;20181;-83
2022/11/28 06:55:39;;;;;;;0.00;0.00;;;;;;;5.46;74.86;100054.34;5073317;28;20171;-79
2022/11/28 06:58:04;;;;;;;0.57;0.57;;;;;;;5.39;75.37;100056.59;5073283;28;20170;-81
2022/11/28 07:00:30;;;;;;;0.00;0.00;;;;;;;5.40;75.26;100054.69;5073426;28;20189;-76
2022/11/28 07:02:56;;;;;;;0.00;0.00;;;;;;;5.41;75.53;100056.28;5072863;28;20222;-81
2022/11/28 07:05:21;;;;;;;0.50;0.50;;;;;;;5.42;75.91;100052.50;5073139;28;20174;-81
2022/11/28 07:07:47;;;;;;;0.00;0.00;;;;;;;5.47;75.90;100055.13;5072949;28;20671;-79
2022/11/28 07:10:13;;;;;;;0.00;0.00;;;;;;;5.44;76.26;100056.53;5053334;28;20191;-76
2022/11/28 07:12:39;;;;;;;0.17;0.17;;;;;;;5.52;75.85;100057.81;5052595;28;20266;-78
2022/11/28 07:15:08;;;;;;;0.00;0.00;;;;;;;5.49;76.39;100061.06;5052862;28;20175;-78
2022/11/28 07:17:34;;;;;;;0.00;0.00;;;;;;;5.46;75.94;100053.53;5052738;28;20175;-76
2022/11/28 07:19:59;;;;;;;3.23;3.20;;;;;;;5.48;76.10;100056.75;5052672;28;20282;-78
2022/11/28 07:22:25;;;;;;;0.00;0.00;;;;;;;5.53;75.45;100048.59;5052221;28;20205;-78
2022/11/28 07:24:51;;;;;;;0.00;0.00;;;;;;;5.54;75.67;100042.88;5052486;28;20183;-79
2022/11/28 07:27:16;;;;;;;0.00;0.00;;;;;;;5.57;75.80;100052.31;5052589;28;20167;-79
2022/11/28 07:29:42;;;;;;;2.63;2.43;;;;;;;5.55;75.92;100049.09;5052581;28;20206;-77
2022/11/28 07:32:07;;;;;;;0.00;0.00;;;;;;;5.58;75.41;100045.81;5052424;28;20240;-79
2022/11/28 07:34:33;;;;;;;2.07;1.87;;;;;;;5.56;75.66;100053.44;5050856;28;20552;-79
2022/11/28 07:36:59;;;;;;;0.40;0.40;;;;;;;5.53;76.02;100060.22;5052216;28;20385;-78
2022/11/28 07:39:24;;;;;;;0.00;0.00;;;;;;;5.58;75.51;100062.06;5050997;28;20185;-77
2022/11/28 07:41:50;;;;;;;0.13;0.13;;;;;;;5.55;75.86;100070.78;5052309;28;20180;-78
2022/11/28 07:44:18;;;;;;;1.33;0.60;;;;;;;5.53;76.22;100075.69;5052010;28;20294;-78
2022/11/28 07:46:45;;;;;;;0.43;0.43;;;;;;;5.50;76.65;100066.22;5052360;28;20217;-79
2022/11/28 07:49:11;;;;;;;0.07;0.07;;;;;;;5.52;76.64;100068.66;5052187;28;20190;-77
2022/11/28 07:51:37;;;;;;;0.00;0.00;;;;;;;5.44;78.38;100072.78;5052258;28;20183;-78
2022/11/28 07:54:03;;;;;;;0.00;0.00;;;;;;;5.46;79.70;100070.59;5051883;28;20622;-77
2022/11/28 07:56:30;;;;;;;0.93;0.87;;;;;;;5.40;80.88;100084.47;5052059;28;20171;-77
2022/11/28 07:58:56;;;;;;;0.57;0.57;;;;;;;5.38;82.10;100085.56;5051965;28;20218;-75
2022/11/28 08:01:28;;;;;;;1.57;1.00;;;;;;;5.35;83.15;100086.16;5050361;28;20646;-74
2022/11/28 08:03:54;;;;;;;0.00;0.00;;;;;;;5.35;83.64;100086.16;5051714;28;20471;-76
2022/11/28 08:06:22;;;;;;;1.27;1.27;;;;;;;5.26;84.48;100087.03;5051753;28;20266;-76
2022/11/28 08:08:50;;;;;;;0.00;0.00;;;;;;;5.26;84.86;100092.47;5051718;28;20599;-78
2022/11/28 08:11:17;;;;;;;0.00;0.00;;;;;;;5.21;86.06;100074.38;5051705;28;20175;-74
2022/11/28 08:13:44;;;;;;;0.00;0.00;;;;;;;5.29;86.57;100068.31;5051211;28;20178;-80
2022/11/28 08:16:18;;;;;;;0.00;0.00;;;;;;;5.31;86.52;100066.13;5051370;28;20183;-77
2022/11/28 08:18:44;;;;;;;0.37;0.37;;;;;;;5.44;86.43;100078.19;5051384;28;20622;-77
2022/11/28 08:21:24;;;;;;;0.00;0.00;;;;;;;5.46;86.08;100070.59;5051483;28;20194;-78
2022/11/28 08:23:51;;;;;;;0.10;0.10;;;;;;;5.46;86.18;100081.44;5051068;28;20202;-78
2022/11/28 08:26:18;;;;;;;0.00;0.00;;;;;;;5.35;85.14;100078.03;5051477;28;20228;-74
2022/11/28 08:28:44;;;;;;;0.00;0.00;;;;;;;5.33;85.11;100069.34;5051262;28;20701;-73
2022/11/28 08:31:10;;;;;;;0.00;0.00;;;;;;;5.22;85.01;100067.84;5051341;28;20274;-75
2022/11/28 08:33:36;;;;;;;18.47;14.43;;;;;;;5.28;85.03;100068.59;5051066;28;20171;-75
2022/11/28 08:36:05;;;;;;;0.87;0.43;;;;;;;5.34;85.01;100062.84;5051091;28;20256;-73
2022/11/28 08:38:31;;;;;;;0.00;0.00;;;;;;;5.35;84.85;100067.19;5051152;28;20172;-74
2022/11/28 08:41:04;;;;;;;0.53;0.53;;;;;;;5.38;84.99;100069.31;5051379;28;20678;-73
2022/11/28 08:43:30;;;;;;;0.03;0.03;;;;;;;5.43;84.52;100054.09;5051061;28;20252;-73
2022/11/28 08:45:55;;;;;;;0.00;0.00;;;;;;;5.33;84.50;100061.22;5051266;28;20599;-72
2022/11/28 08:48:21;;;;;;;0.00;0.00;;;;;;;5.35;83.98;100058.22;5051057;28;20650;-72
2022/11/28 08:50:47;;;;;;;0.50;0.50;;;;;;;5.37;83.75;100064.19;5050995;28;20221;-75
2022/11/28 08:53:12;;;;;;;0.00;0.00;;;;;;;5.38;83.57;100069.31;5050734;28;20176;-72
2022/11/28 08:55:40;;;;;;;0.00;0.00;;;;;;;5.43;82.70;100064.94;5050878;28;20661;-72
2022/11/28 08:58:06;;;;;;;1.17;1.13;;;;;;;5.44;82.86;100067.38;5055427;28;20182;-72
2022/11/28 09:00:32;;;;;;;0.20;0.20;;;;;;;5.51;82.65;100075.16;5059610;28;20224;-73
2022/11/28 09:02:58;;;;;;;0.00;0.00;;;;;;;5.54;82.14;100080.00;5058354;28;20238;-72
2022/11/28 09:05:23;;;;;;;0.00;0.00;;;;;;;5.50;82.03;100079.78;5060792;28;20522;-73
2022/11/28 09:07:49;;;;;;;1.23;1.23;;;;;;;5.52;82.08;100076.78;5059747;28;20175;-72
2022/11/28 09:10:14;;;;;;;1.30;1.27;;;;;;;5.49;81.69;100072.72;5060065;28;20186;-77
2022/11/28 09:12:39;;;;;;;0.00;0.00;;;;;;;5.53;82.33;100081.09;5058635;28;20163;-77
2022/11/28 09:15:05;;;;;;;0.00;0.00;;;;;;;5.50;82.10;100071.66;5061139;28;20200;-79
2022/11/28 09:17:31;;;;;;;0.00;0.00;;;;;;;5.40;82.51;100074.44;5059888;28;20369;-79
2022/11/28 09:19:56;;;;;;;0.00;0.00;;;;;;;5.51;82.39;100070.56;5059379;28;20186;-77
2022/11/28 09:22:21;;;;;;;0.67;0.67;;;;;;;5.57;82.78;100077.53;5060192;28;20679;-79
2022/11/28 09:24:47;;;;;;;0.50;0.43;;;;;;;5.62;82.04;100077.47;5058412;28;20207;-77
2022/11/28 09:27:13;;;;;;;0.63;0.63;;;;;;;5.64;81.48;100077.16;5059389;28;20255;-75
2022/11/28 09:29:38;;;;;;;0.20;0.20;;;;;;;5.71;81.35;100076.84;5058995;28;20189;-72
2022/11/28 09:32:04;;;;;;;0.00;0.00;;;;;;;5.73;80.96;100071.94;5058225;28;20187;-71
2022/11/28 09:34:29;;;;;;;0.47;0.47;;;;;;;5.65;80.95;100067.97;5059840;28;20187;-73
2022/11/28 09:36:55;;;;;;;0.00;0.00;;;;;;;5.76;81.72;100074.06;5060491;28;20181;-73
2022/11/28 09:39:21;;;;;;;0.40;0.40;;;;;;;5.71;81.14;100074.94;5058515;28;20533;-72
2022/11/28 09:41:55;;;;;;;0.00;0.00;;;;;;;5.74;80.69;100071.66;5061125;28;20194;-72
2022/11/28 09:44:54;;;;;;;0.00;0.00;;;;;;;5.74;80.67;100071.66;5054241;28;20242;-73
2022/11/28 09:47:29;;;;;;;2.53;0.97;;;;;;;5.84;80.10;100076.97;5052066;28;20186;-74
2022/11/28 09:50:02;;;;;;;0.00;0.00;;;;;;;5.79;80.10;100074.31;5052737;28;20208;-74
2022/11/28 09:53:05;;;;;;;1.63;1.60;;;;;;;5.90;79.75;100080.44;5052095;28;20172;-74
2022/11/28 09:55:39;;;;;;;0.00;0.00;;;;;;;5.83;79.20;100071.81;5050576;28;20236;-74
2022/11/28 09:58:13;;;;;;;0.07;0.07;;;;;;;5.94;79.20;100067.94;5050448;28;20175;-74
2022/11/28 10:00:46;;;;;;;0.30;0.30;;;;;;;5.94;79.24;100063.31;5050446;28;20240;-74
2022/11/28 10:03:14;;;;;;;0.00;0.00;;;;;;;5.95;79.33;100067.66;5050105;28;20199;-74
2022/11/28 10:05:58;;;;;;;0.00;0.00;;;;;;;5.93;79.53;100066.28;5052470;28;20802;-72
2022/11/28 10:09:08;;;;;;;0.00;0.00;;;;;;;5.96;78.86;100065.75;5066000;28;20265;-72
2022/11/28 10:11:41;;;;;;;1.80;1.80;;;;;;;5.90;79.26;100070.41;5070168;28;20175;-72
2022/11/28 10:14:38;;;;;;;0.30;0.30;;;;;;;6.01;79.03;100070.28;5069960;28;20182;-71
2022/11/28 10:17:32;;;;;;;1.30;1.30;;;;;;;5.99;78.75;100062.44;5070083;28;20175;-72
2022/11/28 10:20:17;;;;;;;0.00;0.00;;;;;;;5.93;79.34;100074.44;5070174;28;20223;-73
2022/11/28 10:22:47;;;;;;;0.00;0.00;;;;;;;5.94;79.48;100057.09;5069765;28;20182;-71
2022/11/28 10:25:27;;;;;;;0.10;0.10;;;;;;;5.98;79.81;100068.97;5072273;28;20182;-72
2022/11/28 10:27:54;;;;;;;0.00;0.00;;;;;;;5.85;80.04;100062.31;5073500;28;20171;-71
2022/11/28 10:30:25;;;;;;;0.77;0.77;;;;;;;5.77;80.30;100064.84;5073586;28;20171;-71
2022/11/28 10:33:00;;;;;;;0.00;0.00;;;;;;;5.80;80.63;100067.78;5073287;28;20232;-72
2022/11/28 10:35:30;;;;;;;0.00;0.00;;;;;;;5.74;80.55;100071.66;5073225;28;20194;-73
2022/11/28 10:37:55;;;;;;;0.27;0.27;;;;;;;5.65;80.16;100067.97;5073656;28;20178;-72
2022/11/28 10:40:28;;;;;;;0.00;0.00;;;;;;;5.68;80.29;100064.69;5072952;28;20687;-72
2022/11/28 10:43:23;;;;;;;0.00;0.00;;;;;;;5.83;80.68;100061.78;5072756;28;20878;-72
2022/11/28 10:45:59;;;;;;;0.10;0.10;;;;;;;5.92;80.44;100049.22;5067015;28;20198;-72
2022/11/28 10:48:44;;;;;;;0.00;0.00;;;;;;;6.08;80.13;100054.47;5073118;28;20536;-72
2022/11/28 10:51:28;;;;;;;0.50;0.43;;;;;;;6.11;79.22;100053.91;5072799;28;20179;-72
2022/11/28 10:54:03;;;;;;;0.00;0.00;;;;;;;6.15;79.35;100044.88;5072605;28;20174;-72
2022/11/28 10:56:53;;;;;;;0.50;0.50;;;;;;;6.21;78.43;100045.59;5072765;28;20651;-72
2022/11/28 10:59:42;;;;;;;0.47;0.47;;;;;;;6.16;78.14;100043.78;5072553;28;20182;-73
2022/11/28 11:02:29;;;;;;;0.00;0.00;;;;;;;6.22;78.32;100048.06;5072687;28;20171;-72
2022/11/28 11:04:54;;;;;;;0.00;0.00;;;;;;;6.19;77.62;100039.66;5072480;28;20189;-72
2022/11/28 11:07:29;;;;;;;0.57;0.33;;;;;;;6.20;77.68;100041.28;5072645;28;20224;-72
2022/11/28 11:10:01;;;;;;;0.80;0.80;;;;;;;6.24;77.62;100036.91;5072360;28;20181;-71
2022/11/28 11:12:30;;;;;;;1.50;1.40;;;;;;;6.24;77.72;100036.91;5072803;28;20251;-71
2022/11/28 11:14:56;;;;;;;1.20;1.17;;;;;;;6.24;77.49;100042.34;5072554;28;20228;-72
2022/11/28 11:17:27;;;;;;;0.57;0.57;;;;;;;6.25;77.06;100033.09;5072463;28;20210;-72
2022/11/28 11:19:53;;;;;;;0.00;0.00;;;;;;;6.24;77.75;100034.19;5072385;28;20166;-71
2022/11/28 11:22:25;;;;;;;0.87;0.77;;;;;;;6.18;77.78;100024.50;5071692;28;20181;-73
2022/11/28 11:25:14;;;;;;;0.43;0.43;;;;;;;6.23;77.85;100036.09;5072181;28;20202;-73
2022/11/28 11:27:54;;;;;;;0.30;0.30;;;;;;;6.30;77.76;100029.50;5072226;28;20566;-72
2022/11/28 11:30:25;;;;;;;2.00;1.90;;;;;;;6.28;77.72;100034.41;5071991;28;20224;-72
2022/11/28 11:32:50;;;;;;;0.10;0.10;;;;;;;6.32;77.69;100038.94;5071759;28;20171;-72
2022/11/28 11:35:21;;;;;;;0.73;0.73;;;;;;;6.30;77.41;100038.44;5071659;28;20175;-72
2022/11/28 11:37:46;;;;;;;0.00;0.00;;;;;;;6.36;78.31;100029.09;5072570;28;20533;-73
2022/11/28 11:40:38;;;;;;;0.00;0.00;;;;;;;6.44;78.25;100025.75;5072335;28;20170;-75
2022/11/28 11:43:23;;;;;;;0.00;0.00;;;;;;;6.37;78.31;100027.22;5069876;28;20214;-73
2022/11/28 11:46:03;;;;;;;0.53;0.53;;;;;;;6.27;78.16;100033.59;5072172;28;20500;-73
2022/11/28 11:48:43;;;;;;;1.33;0.93;;;;;;;6.22;78.09;100036.38;5072279;28;20415;-73
2022/11/28 11:51:22;;;;;;;0.00;0.00;;;;;;;6.26;78.43;100023.84;5072148;28;20629;-72